sensor_id;sensor_type;location;lat;lon;timestamp;pressure;altitude;pressure_sealevel;temperature;humidity
69187;BME280;56301;56.864;60.554;2022-11-04T00:01:20;97689.94;;;24.31;40.77
69187;BME280;56301;56.864;60.554;2022-11-04T00:03:43;97686.19;;;24.32;40.85
69187;BME280;56301;56.864;60.554;2022-11-04T00:06:06;97688.28;;;24.30;41.01
69187;BME280;56301;56.864;60.554;2022-11-04T00:08:28;97695.53;;;24.29;41.16
69187;BME280;56301;56.864;60.554;2022-11-04T00:10:54;97693.06;;;24.27;41.08
69187;BME280;56301;56.864;60.554;2022-11-04T00:13:17;97688.50;;;24.28;41.08
69187;BME280;56301;56.864;60.554;2022-11-04T00:15:39;97697.22;;;24.30;41.03
69187;BME280;56301;56.864;60.554;2022-11-04T00:18:02;97685.59;;;24.30;40.93
69187;BME280;56301;56.864;60.554;2022-11-04T00:20:24;97689.31;;;24.29;40.93
69187;BME280;56301;56.864;60.554;2022-11-04T00:22:46;97693.91;;;24.28;40.58
69187;BME280;56301;56.864;60.554;2022-11-04T00:25:09;97695.13;;;24.25;40.69
69187;BME280;56301;56.864;60.554;2022-11-04T00:27:31;97686.84;;;24.27;40.52
69187;BME280;56301;56.864;60.554;2022-11-04T00:29:54;97691.41;;;24.26;40.74
69187;BME280;56301;56.864;60.554;2022-11-04T00:32:17;97690.38;;;24.27;40.47
69187;BME280;56301;56.864;60.554;2022-11-04T00:34:39;97686.41;;;24.23;40.76
69187;BME280;56301;56.864;60.554;2022-11-04T00:37:01;97687.25;;;24.24;41.10
69187;BME280;56301;56.864;60.554;2022-11-04T00:39:24;97685.78;;;24.21;41.31
69187;BME280;56301;56.864;60.554;2022-11-04T00:41:46;97683.72;;;24.23;40.63
69187;BME280;56301;56.864;60.554;2022-11-04T00:44:09;97686.41;;;24.23;40.79
69187;BME280;56301;56.864;60.554;2022-11-04T00:46:32;97683.91;;;24.29;41.47
69187;BME280;56301;56.864;60.554;2022-11-04T00:48:54;97689.31;;;24.29;40.76
69187;BME280;56301;56.864;60.554;2022-11-04T00:51:17;97688.72;;;24.26;41.04
69187;BME280;56301;56.864;60.554;2022-11-04T00:53:39;97690.59;;;24.26;40.65
69187;BME280;56301;56.864;60.554;2022-11-04T00:56:02;97688.50;;;24.28;40.93
69187;BME280;56301;56.864;60.554;2022-11-04T00:58:24;97688.50;;;24.28;40.84
69187;BME280;56301;56.864;60.554;2022-11-04T01:00:47;97684.31;;;24.25;40.85
69187;BME280;56301;56.864;60.554;2022-11-04T01:03:09;97686.00;;;24.26;40.84
69187;BME280;56301;56.864;60.554;2022-11-04T01:05:32;97692.25;;;24.27;41.24
69187;BME280;56301;56.864;60.554;2022-11-04T01:07:55;97692.25;;;24.27;41.52
69187;BME280;56301;56.864;60.554;2022-11-04T01:10:17;97691.81;;;24.23;41.01
69187;BME280;56301;56.864;60.554;2022-11-04T01:12:40;97692.88;;;24.22;41.06
69187;BME280;56301;56.864;60.554;2022-11-04T01:15:03;97688.47;;;24.21;40.66
69187;BME280;56301;56.864;60.554;2022-11-04T01:17:25;97692.22;;;24.20;40.86
69187;BME280;56301;56.864;60.554;2022-11-04T01:19:48;97688.91;;;24.18;40.71
69187;BME280;56301;56.864;60.554;2022-11-04T01:22:10;97685.34;;;24.18;40.86
69187;BME280;56301;56.864;60.554;2022-11-04T01:24:32;97687.22;;;24.17;41.00
69187;BME280;56301;56.864;60.554;2022-11-04T01:26:55;97694.31;;;24.18;40.27
69187;BME280;56301;56.864;60.554;2022-11-04T01:29:17;97679.34;;;24.22;41.21
69187;BME280;56301;56.864;60.554;2022-11-04T01:31:40;97692.00;;;24.29;40.76
69187;BME280;56301;56.864;60.554;2022-11-04T01:34:02;97688.50;;;24.28;40.74
69187;BME280;56301;56.864;60.554;2022-11-04T01:36:25;97690.16;;;24.22;40.71
69187;BME280;56301;56.864;60.554;2022-11-04T01:38:48;97693.88;;;24.21;41.17
69187;BME280;56301;56.864;60.554;2022-11-04T01:41:21;97693.06;;;24.21;40.76
69187;BME280;56301;56.864;60.554;2022-11-04T01:43:47;97684.75;;;24.22;40.99
69187;BME280;56301;56.864;60.554;2022-11-04T01:46:21;97682.06;;;24.22;40.51
69187;BME280;56301;56.864;60.554;2022-11-04T01:48:46;97688.47;;;24.21;40.81
69187;BME280;56301;56.864;60.554;2022-11-04T01:51:08;97686.41;;;24.23;40.74
69187;BME280;56301;56.864;60.554;2022-11-04T01:53:35;97686.41;;;24.23;40.75
69187;BME280;56301;56.864;60.554;2022-11-04T01:55:59;97683.72;;;24.23;40.93
69187;BME280;56301;56.864;60.554;2022-11-04T01:58:27;97686.41;;;24.23;40.69
69187;BME280;56301;56.864;60.554;2022-11-04T02:00:50;97689.13;;;24.23;40.55
69187;BME280;56301;56.864;60.554;2022-11-04T02:03:19;97684.97;;;24.27;41.02
69187;BME280;56301;56.864;60.554;2022-11-04T02:05:44;97684.13;;;24.27;41.13
69187;BME280;56301;56.864;60.554;2022-11-04T02:08:07;97684.75;;;24.22;40.69
69187;BME280;56301;56.864;60.554;2022-11-04T02:10:31;97695.34;;;24.17;40.53
69187;BME280;56301;56.864;60.554;2022-11-04T02:12:54;97687.63;;;24.14;40.51
69187;BME280;56301;56.864;60.554;2022-11-04T02:15:26;97689.50;;;24.14;40.71
69187;BME280;56301;56.864;60.554;2022-11-04T02:35:48;97690.56;;;24.13;40.19
69187;BME280;56301;56.864;60.554;2022-11-04T02:43:40;97690.16;;;24.16;40.79
69187;BME280;56301;56.864;60.554;2022-11-04T02:46:30;97689.31;;;24.15;40.94
69187;BME280;56301;56.864;60.554;2022-11-04T02:48:59;97684.75;;;24.16;40.89
69187;BME280;56301;56.864;60.554;2022-11-04T02:51:26;97694.72;;;24.15;40.99
69187;BME280;56301;56.864;60.554;2022-11-04T02:53:52;97689.94;;;24.17;40.71
69187;BME280;56301;56.864;60.554;2022-11-04T02:56:20;97684.53;;;24.17;41.16
69187;BME280;56301;56.864;60.554;2022-11-04T02:58:45;97699.72;;;24.18;40.61
69187;BME280;56301;56.864;60.554;2022-11-04T03:01:10;97696.38;;;24.16;40.76
69187;BME280;56301;56.864;60.554;2022-11-04T03:03:40;97697.22;;;24.17;40.42
69187;BME280;56301;56.864;60.554;2022-11-04T03:06:04;97704.50;;;24.16;40.42
69187;BME280;56301;56.864;60.554;2022-11-04T03:08:46;97696.38;;;24.16;40.71
69187;BME280;56301;56.864;60.554;2022-11-04T03:11:10;97704.72;;;24.15;40.56
69187;BME280;56301;56.864;60.554;2022-11-04T03:13:41;97703.84;;;24.14;40.58
69187;BME280;56301;56.864;60.554;2022-11-04T03:16:06;97698.88;;;24.11;40.60
69187;BME280;56301;56.864;60.554;2022-11-04T03:18:45;97691.38;;;24.13;40.09
69187;BME280;56301;56.864;60.554;2022-11-04T03:21:11;97691.78;;;24.10;39.24
69187;BME280;56301;56.864;60.554;2022-11-04T03:23:34;97697.19;;;24.10;39.04
69187;BME280;56301;56.864;60.554;2022-11-04T03:26:01;97694.72;;;24.09;39.45
69187;BME280;56301;56.864;60.554;2022-11-04T03:31:06;97704.28;;;24.11;39.10
69187;BME280;56301;56.864;60.554;2022-11-04T03:33:37;97703.66;;;24.16;39.32
69187;BME280;56301;56.864;60.554;2022-11-04T03:36:01;97697.03;;;24.18;39.11
69187;BME280;56301;56.864;60.554;2022-11-04T03:38:23;97709.25;;;24.14;38.34
69187;BME280;56301;56.864;60.554;2022-11-04T03:40:46;97702.41;;;24.12;37.84
69187;BME280;56301;56.864;60.554;2022-11-04T03:43:09;97706.56;;;24.08;38.61
69187;BME280;56301;56.864;60.554;2022-11-04T03:45:32;97695.75;;;24.08;38.44
69187;BME280;56301;56.864;60.554;2022-11-04T03:47:55;97693.88;;;24.08;38.95
69187;BME280;56301;56.864;60.554;2022-11-04T03:50:24;97694.91;;;24.07;38.32
69187;BME280;56301;56.864;60.554;2022-11-04T03:52:48;97690.56;;;24.13;38.83
69187;BME280;56301;56.864;60.554;2022-11-04T03:55:10;97694.72;;;24.15;38.33
69187;BME280;56301;56.864;60.554;2022-11-04T04:00:00;97686.03;;;24.40;37.76
69187;BME280;56301;56.864;60.554;2022-11-04T04:05:12;97688.53;;;24.41;37.16
69187;BME280;56301;56.864;60.554;2022-11-04T04:07:40;97688.69;;;24.20;36.62
69187;BME280;56301;56.864;60.554;2022-11-04T04:12:34;97692.63;;;24.04;37.80
69187;BME280;56301;56.864;60.554;2022-11-04T04:14:59;97702.16;;;24.00;37.98
69187;BME280;56301;56.864;60.554;2022-11-04T04:19:53;97697.19;;;23.97;38.18
69187;BME280;56301;56.864;60.554;2022-11-04T04:22:19;97702.59;;;23.97;38.09
69187;BME280;56301;56.864;60.554;2022-11-04T04:24:44;97693.03;;;24.01;37.71
69187;BME280;56301;56.864;60.554;2022-11-04T04:27:08;97691.19;;;24.08;38.49
69187;BME280;56301;56.864;60.554;2022-11-04T04:29:31;97662.03;;;23.90;38.25
69187;BME280;56301;56.864;60.554;2022-11-04T04:31:54;97694.06;;;24.00;38.73
69187;BME280;56301;56.864;60.554;2022-11-04T04:34:23;97687.41;;;24.02;38.88
69187;BME280;56301;56.864;60.554;2022-11-04T04:36:50;97685.78;;;24.08;38.96
69187;BME280;56301;56.864;60.554;2022-11-04T04:39:16;97568.31;;;23.91;38.92
69187;BME280;56301;56.864;60.554;2022-11-04T04:41:39;97571.44;;;24.01;38.51
69187;BME280;56301;56.864;60.554;2022-11-04T04:44:02;97578.09;;;23.98;38.54
69187;BME280;56301;56.864;60.554;2022-11-04T04:46:26;97578.31;;;23.97;37.93
69187;BME280;56301;56.864;60.554;2022-11-04T04:48:49;97578.31;;;23.90;36.77
69187;BME280;56301;56.864;60.554;2022-11-04T04:51:11;97574.34;;;23.93;37.35
69187;BME280;56301;56.864;60.554;2022-11-04T04:53:34;97574.75;;;23.96;37.58
69187;BME280;56301;56.864;60.554;2022-11-04T04:55:56;97579.16;;;24.04;37.50
69187;BME280;56301;56.864;60.554;2022-11-04T04:58:19;97582.03;;;24.09;37.56
69187;BME280;56301;56.864;60.554;2022-11-04T05:00:41;97573.09;;;24.09;37.60
69187;BME280;56301;56.864;60.554;2022-11-04T05:03:03;97579.53;;;24.14;38.19
69187;BME280;56301;56.864;60.554;2022-11-04T05:05:26;97579.13;;;24.11;37.84
69187;BME280;56301;56.864;60.554;2022-11-04T05:07:48;97577.25;;;24.18;37.81
69187;BME280;56301;56.864;60.554;2022-11-04T05:10:11;97577.47;;;24.16;37.22
69187;BME280;56301;56.864;60.554;2022-11-04T05:12:34;97574.13;;;24.14;37.99
69187;BME280;56301;56.864;60.554;2022-11-04T05:14:57;97574.97;;;24.15;37.43
69187;BME280;56301;56.864;60.554;2022-11-04T05:17:19;97584.09;;;24.14;37.24
69187;BME280;56301;56.864;60.554;2022-11-04T05:19:42;97553.78;;;23.98;37.05
69187;BME280;56301;56.864;60.554;2022-11-04T05:22:04;97664.34;;;24.13;37.21
69187;BME280;56301;56.864;60.554;2022-11-04T05:24:27;97665.63;;;24.24;38.35
69187;BME280;56301;56.864;60.554;2022-11-04T05:26:49;97669.78;;;24.26;37.76
69187;BME280;56301;56.864;60.554;2022-11-04T05:29:12;97667.09;;;24.33;38.57
69187;BME280;56301;56.864;60.554;2022-11-04T05:31:34;97573.31;;;24.27;38.78
69187;BME280;56301;56.864;60.554;2022-11-04T05:33:58;97575.41;;;24.18;39.80
69187;BME280;56301;56.864;60.554;2022-11-04T05:36:20;97577.25;;;24.18;39.25
69187;BME280;56301;56.864;60.554;2022-11-04T05:38:42;97580.38;;;24.15;39.07
69187;BME280;56301;56.864;60.554;2022-11-04T05:41:05;97579.34;;;24.16;38.44
69187;BME280;56301;56.864;60.554;2022-11-04T05:43:28;97571.44;;;24.21;37.76
69187;BME280;56301;56.864;60.554;2022-11-04T05:45:51;97579.13;;;24.31;38.07
69187;BME280;56301;56.864;60.554;2022-11-04T05:48:13;97666.88;;;24.28;38.60
69187;BME280;56301;56.864;60.554;2022-11-04T05:50:36;97663.75;;;24.31;38.53
69187;BME280;56301;56.864;60.554;2022-11-04T05:52:58;97673.72;;;24.31;38.22
69187;BME280;56301;56.864;60.554;2022-11-04T05:55:21;97666.22;;;24.33;38.20
69187;BME280;56301;56.864;60.554;2022-11-04T05:57:44;97576.00;;;24.34;38.58
69187;BME280;56301;56.864;60.554;2022-11-04T06:00:06;97580.34;;;24.35;38.36
69187;BME280;56301;56.864;60.554;2022-11-04T06:02:29;97576.84;;;24.41;39.15
69187;BME280;56301;56.864;60.554;2022-11-04T06:04:51;97576.19;;;24.39;39.11
69187;BME280;56301;56.864;60.554;2022-11-04T06:07:14;97576.19;;;24.39;39.79
69187;BME280;56301;56.864;60.554;2022-11-04T06:09:36;97574.53;;;24.38;39.90
69187;BME280;56301;56.864;60.554;2022-11-04T06:11:59;97577.47;;;24.30;39.96
69187;BME280;56301;56.864;60.554;2022-11-04T06:14:21;97576.59;;;24.29;39.33
69187;BME280;56301;56.864;60.554;2022-11-04T06:16:43;97573.72;;;24.31;39.31
69187;BME280;56301;56.864;60.554;2022-11-04T06:19:06;97576.00;;;24.27;39.39
69187;BME280;56301;56.864;60.554;2022-11-04T06:21:29;97569.78;;;24.26;38.63
69187;BME280;56301;56.864;60.554;2022-11-04T06:23:52;97584.31;;;24.25;39.14
69187;BME280;56301;56.864;60.554;2022-11-04T06:26:15;97578.47;;;24.29;38.92
69187;BME280;56301;56.864;60.554;2022-11-04T06:28:38;97581.00;;;24.37;38.46
69187;BME280;56301;56.864;60.554;2022-11-04T06:31:01;97580.34;;;24.35;39.44
69187;BME280;56301;56.864;60.554;2022-11-04T06:33:24;97580.78;;;24.32;38.72
69187;BME280;56301;56.864;60.554;2022-11-04T06:35:46;97589.72;;;24.25;38.28
69187;BME280;56301;56.864;60.554;2022-11-04T06:38:08;97583.06;;;24.35;38.25
69187;BME280;56301;56.864;60.554;2022-11-04T06:40:31;97577.88;;;24.33;38.61
69187;BME280;56301;56.864;60.554;2022-11-04T06:42:53;97582.88;;;24.43;38.54
69187;BME280;56301;56.864;60.554;2022-11-04T06:45:16;97578.69;;;24.47;38.29
69187;BME280;56301;56.864;60.554;2022-11-04T06:47:38;97578.28;;;24.50;38.32
69187;BME280;56301;56.864;60.554;2022-11-04T06:50:00;97576.03;;;24.40;38.67
69187;BME280;56301;56.864;60.554;2022-11-04T06:52:23;97577.66;;;24.35;38.21
69187;BME280;56301;56.864;60.554;2022-11-04T06:54:45;97579.72;;;24.33;39.01
69187;BME280;56301;56.864;60.554;2022-11-04T06:57:09;97575.19;;;24.33;38.71
69187;BME280;56301;56.864;60.554;2022-11-04T06:59:31;97580.78;;;24.32;38.54
69187;BME280;56301;56.864;60.554;2022-11-04T07:01:54;97577.47;;;24.30;38.47
69187;BME280;56301;56.864;60.554;2022-11-04T07:04:16;97569.78;;;24.33;38.07
69187;BME280;56301;56.864;60.554;2022-11-04T07:06:42;97577.66;;;24.35;37.47
69187;BME280;56301;56.864;60.554;2022-11-04T07:09:05;97569.53;;;24.35;37.71
69187;BME280;56301;56.864;60.554;2022-11-04T07:11:28;97563.31;;;24.34;37.14
69187;BME280;56301;56.864;60.554;2022-11-04T07:13:51;97573.72;;;24.31;37.88
69187;BME280;56301;56.864;60.554;2022-11-04T07:16:14;97570.19;;;24.37;37.33
69187;BME280;56301;56.864;60.554;2022-11-04T07:18:36;97574.13;;;24.34;37.71
69187;BME280;56301;56.864;60.554;2022-11-04T07:20:59;97563.94;;;24.43;36.63
69187;BME280;56301;56.864;60.554;2022-11-04T07:23:21;97562.50;;;24.34;38.47
69187;BME280;56301;56.864;60.554;2022-11-04T07:25:44;97564.56;;;24.32;37.76
69187;BME280;56301;56.864;60.554;2022-11-04T07:28:06;97649.19;;;24.32;37.97
69187;BME280;56301;56.864;60.554;2022-11-04T07:30:28;97648.78;;;24.35;38.12
69187;BME280;56301;56.864;60.554;2022-11-04T07:32:51;97646.09;;;24.48;38.30
69187;BME280;56301;56.864;60.554;2022-11-04T07:35:13;97649.81;;;24.54;37.51
69187;BME280;56301;56.864;60.554;2022-11-04T07:37:36;97651.50;;;24.48;38.86
69187;BME280;56301;56.864;60.554;2022-11-04T07:39:58;97646.09;;;24.42;39.24
69187;BME280;56301;56.864;60.554;2022-11-04T07:42:21;97641.94;;;24.46;40.38
69187;BME280;56301;56.864;60.554;2022-11-04T07:44:49;97654.00;;;24.43;40.12
69187;BME280;56301;56.864;60.554;2022-11-04T07:47:11;97647.56;;;24.44;40.11
69187;BME280;56301;56.864;60.554;2022-11-04T07:49:33;97647.75;;;24.43;39.96
69187;BME280;56301;56.864;60.554;2022-11-04T07:51:56;97648.59;;;24.43;40.53
69187;BME280;56301;56.864;60.554;2022-11-04T07:54:18;97646.75;;;24.44;40.37
69187;BME280;56301;56.864;60.554;2022-11-04T07:56:41;97556.88;;;24.42;40.89
69187;BME280;56301;56.864;60.554;2022-11-04T07:59:06;97546.69;;;24.44;40.58
69187;BME280;56301;56.864;60.554;2022-11-04T08:01:29;97549.81;;;24.41;39.98
69187;BME280;56301;56.864;60.554;2022-11-04T08:03:51;97554.56;;;24.39;40.00
69187;BME280;56301;56.864;60.554;2022-11-04T08:06:13;97640.28;;;24.45;39.29
69187;BME280;56301;56.864;60.554;2022-11-04T08:08:36;97636.53;;;24.46;39.95
69187;BME280;56301;56.864;60.554;2022-11-04T08:11:03;97636.13;;;24.49;40.06
69187;BME280;56301;56.864;60.554;2022-11-04T08:13:26;97638.19;;;24.54;39.70
69187;BME280;56301;56.864;60.554;2022-11-04T08:15:48;97633.19;;;24.64;40.59
69187;BME280;56301;56.864;60.554;2022-11-04T08:18:11;97621.13;;;24.66;41.25
69187;BME280;56301;56.864;60.554;2022-11-04T08:20:33;97631.13;;;24.59;41.17
69187;BME280;56301;56.864;60.554;2022-11-04T08:22:56;97631.13;;;24.53;41.15
69187;BME280;56301;56.864;60.554;2022-11-04T08:25:18;97627.38;;;24.47;41.65
69187;BME280;56301;56.864;60.554;2022-11-04T08:27:40;97624.06;;;24.45;41.53
69187;BME280;56301;56.864;60.554;2022-11-04T08:30:03;97628.22;;;24.47;41.56
69187;BME280;56301;56.864;60.554;2022-11-04T08:32:25;97625.28;;;24.62;42.68
69187;BME280;56301;56.864;60.554;2022-11-04T08:34:48;97633.00;;;24.52;42.99
69187;BME280;56301;56.864;60.554;2022-11-04T08:37:14;97631.94;;;24.66;42.14
69187;BME280;56301;56.864;60.554;2022-11-04T08:39:36;97634.88;;;24.52;42.03
69187;BME280;56301;56.864;60.554;2022-11-04T08:41:58;97624.06;;;24.45;42.31
69187;BME280;56301;56.864;60.554;2022-11-04T08:44:21;97622.16;;;24.39;42.10
69187;BME280;56301;56.864;60.554;2022-11-04T08:46:43;97629.84;;;24.35;42.39
69187;BME280;56301;56.864;60.554;2022-11-04T08:49:06;97628.19;;;24.34;41.81
69187;BME280;56301;56.864;60.554;2022-11-04T08:51:29;97628.38;;;24.33;42.46
69187;BME280;56301;56.864;60.554;2022-11-04T08:53:52;97628.59;;;24.31;42.56
69187;BME280;56301;56.864;60.554;2022-11-04T08:56:19;97625.06;;;24.31;42.51
69187;BME280;56301;56.864;60.554;2022-11-04T08:58:41;97625.25;;;24.29;42.13
69187;BME280;56301;56.864;60.554;2022-11-04T09:01:04;97626.53;;;24.26;42.45
69187;BME280;56301;56.864;60.554;2022-11-04T09:03:27;97621.13;;;24.26;42.35
69187;BME280;56301;56.864;60.554;2022-11-04T09:05:49;97622.38;;;24.24;42.54
69187;BME280;56301;56.864;60.554;2022-11-04T09:08:12;97612.38;;;24.24;42.78
69187;BME280;56301;56.864;60.554;2022-11-04T09:10:35;97625.28;;;24.22;42.28
69187;BME280;56301;56.864;60.554;2022-11-04T09:12:58;97624.44;;;24.22;42.39
69187;BME280;56301;56.864;60.554;2022-11-04T09:15:20;97615.31;;;24.23;42.16
69187;BME280;56301;56.864;60.554;2022-11-04T09:17:42;97614.47;;;24.22;42.79
69187;BME280;56301;56.864;60.554;2022-11-04T09:20:05;97627.13;;;24.22;42.79
69187;BME280;56301;56.864;60.554;2022-11-04T09:22:28;97621.94;;;24.20;42.50
69187;BME280;56301;56.864;60.554;2022-11-04T09:24:50;97616.53;;;24.20;42.80
69187;BME280;56301;56.864;60.554;2022-11-04T09:27:13;97615.94;;;24.18;42.60
69187;BME280;56301;56.864;60.554;2022-11-04T09:29:35;97612.38;;;24.18;42.68
69187;BME280;56301;56.864;60.554;2022-11-04T09:31:58;97604.50;;;24.16;42.86
69187;BME280;56301;56.864;60.554;2022-11-04T09:34:20;97613.44;;;24.17;43.07
69187;BME280;56301;56.864;60.554;2022-11-04T09:36:43;97611.56;;;24.17;42.84
69187;BME280;56301;56.864;60.554;2022-11-04T09:39:05;97616.97;;;24.17;42.71
69187;BME280;56301;56.864;60.554;2022-11-04T09:44:12;97612.59;;;24.16;42.42
69187;BME280;56301;56.864;60.554;2022-11-04T09:46:35;97611.97;;;24.14;42.94
69187;BME280;56301;56.864;60.554;2022-11-04T09:48:58;97601.38;;;24.13;43.07
69187;BME280;56301;56.864;60.554;2022-11-04T09:51:23;97611.13;;;24.14;43.15
69187;BME280;56301;56.864;60.554;2022-11-04T09:53:48;97610.31;;;24.13;42.78
69187;BME280;56301;56.864;60.554;2022-11-04T09:58:40;97603.25;;;24.12;43.00
69187;BME280;56301;56.864;60.554;2022-11-04T10:01:11;97605.31;;;24.10;43.28
69187;BME280;56301;56.864;60.554;2022-11-04T10:14:16;97593.69;;;24.10;42.59
69187;BME280;56301;56.864;60.554;2022-11-04T10:19:14;97592.03;;;24.09;43.21
69187;BME280;56301;56.864;60.554;2022-11-04T10:21:43;97593.91;;;24.08;43.11
69187;BME280;56301;56.864;60.554;2022-11-04T10:26:43;97594.72;;;24.09;43.34
69187;BME280;56301;56.864;60.554;2022-11-04T10:29:10;97591.19;;;24.08;42.67
69187;BME280;56301;56.864;60.554;2022-11-04T10:31:34;97590.38;;;24.08;43.24
69187;BME280;56301;56.864;60.554;2022-11-04T10:34:02;97592.22;;;24.07;43.55
69187;BME280;56301;56.864;60.554;2022-11-04T10:36:26;97591.19;;;24.08;43.05
69187;BME280;56301;56.864;60.554;2022-11-04T10:38:52;97598.47;;;24.08;43.59
69187;BME280;56301;56.864;60.554;2022-11-04T10:43:40;97599.50;;;24.07;43.40
69187;BME280;56301;56.864;60.554;2022-11-04T10:48:40;97591.38;;;24.07;42.91
69187;BME280;56301;56.864;60.554;2022-11-04T10:51:04;97589.72;;;24.06;43.18
69187;BME280;56301;56.864;60.554;2022-11-04T10:53:28;97586.19;;;24.05;43.32
69187;BME280;56301;56.864;60.554;2022-11-04T10:58:24;97582.03;;;24.02;43.19
69187;BME280;56301;56.864;60.554;2022-11-04T11:00:47;97579.16;;;24.04;43.57
69187;BME280;56301;56.864;60.554;2022-11-04T11:03:31;97587.25;;;24.04;43.33
69187;BME280;56301;56.864;60.554;2022-11-04T11:05:52;97589.09;;;24.03;43.79
69187;BME280;56301;56.864;60.554;2022-11-04T11:08:29;97588.25;;;24.03;43.54
69187;BME280;56301;56.864;60.554;2022-11-04T11:10:52;97588.25;;;24.03;43.42
69187;BME280;56301;56.864;60.554;2022-11-04T11:13:25;97586.38;;;24.03;43.76
69187;BME280;56301;56.864;60.554;2022-11-04T11:15:48;97590.97;;;24.03;43.17
69187;BME280;56301;56.864;60.554;2022-11-04T11:18:14;97589.09;;;24.03;43.37
69187;BME280;56301;56.864;60.554;2022-11-04T11:20:38;97584.97;;;24.01;43.25
69187;BME280;56301;56.864;60.554;2022-11-04T11:23:00;97590.16;;;24.02;43.58
69187;BME280;56301;56.864;60.554;2022-11-04T11:27:50;97586.63;;;24.02;43.02
69187;BME280;56301;56.864;60.554;2022-11-04T11:30:27;97588.25;;;24.03;43.37
69187;BME280;56301;56.864;60.554;2022-11-04T11:32:50;97584.97;;;24.01;43.18
69187;BME280;56301;56.864;60.554;2022-11-04T11:35:15;97581.22;;;24.02;43.89
69187;BME280;56301;56.864;60.554;2022-11-04T11:37:38;97575.81;;;24.02;43.37
69187;BME280;56301;56.864;60.554;2022-11-04T11:40:00;97583.91;;;24.02;43.88
69187;BME280;56301;56.864;60.554;2022-11-04T11:42:23;97586.63;;;24.02;43.79
69187;BME280;56301;56.864;60.554;2022-11-04T11:44:55;97574.16;;;24.01;43.54
69187;BME280;56301;56.864;60.554;2022-11-04T11:52:31;97569.75;;;24.00;43.82
69187;BME280;56301;56.864;60.554;2022-11-04T11:54:55;97571.63;;;23.99;43.77
69187;BME280;56301;56.864;60.554;2022-11-04T11:57:34;97573.50;;;23.99;43.40
69187;BME280;56301;56.864;60.554;2022-11-04T12:00:09;97574.34;;;23.99;43.14
69187;BME280;56301;56.864;60.554;2022-11-04T12:02:40;97580.78;;;23.98;43.21
69187;BME280;56301;56.864;60.554;2022-11-04T12:05:10;97562.72;;;23.99;43.80
69187;BME280;56301;56.864;60.554;2022-11-04T12:07:35;97585.38;;;23.98;43.39
69187;BME280;56301;56.864;60.554;2022-11-04T12:10:06;97581.63;;;23.99;43.14
69187;BME280;56301;56.864;60.554;2022-11-04T12:12:34;97578.09;;;23.98;43.30
69187;BME280;56301;56.864;60.554;2022-11-04T12:17:28;97584.53;;;23.97;43.23
69187;BME280;56301;56.864;60.554;2022-11-04T12:27:09;97579.97;;;23.98;43.49
69187;BME280;56301;56.864;60.554;2022-11-04T12:29:38;97586.41;;;23.97;43.58
69187;BME280;56301;56.864;60.554;2022-11-04T12:32:27;97587.25;;;23.97;43.68
69187;BME280;56301;56.864;60.554;2022-11-04T12:42:36;97576.63;;;23.96;44.04
69187;BME280;56301;56.864;60.554;2022-11-04T12:47:28;97587.44;;;23.96;44.05
69187;BME280;56301;56.864;60.554;2022-11-04T12:57:41;97582.84;;;23.96;43.40
69187;BME280;56301;56.864;60.554;2022-11-04T13:00:09;97583.06;;;23.95;43.79
69187;BME280;56301;56.864;60.554;2022-11-04T13:02:46;97582.84;;;23.96;44.31
69187;BME280;56301;56.864;60.554;2022-11-04T13:05:22;97589.13;;;23.97;43.88
69187;BME280;56301;56.864;60.554;2022-11-04T13:07:52;97595.53;;;23.96;43.70
69187;BME280;56301;56.864;60.554;2022-11-04T13:13:02;97581.19;;;23.95;43.70
69187;BME280;56301;56.864;60.554;2022-11-04T13:15:25;97585.78;;;23.95;43.70
69187;BME280;56301;56.864;60.554;2022-11-04T13:17:53;97583.91;;;23.95;43.79
69187;BME280;56301;56.864;60.554;2022-11-04T13:22:42;97584.94;;;23.94;43.81
69187;BME280;56301;56.864;60.554;2022-11-04T13:25:11;97589.31;;;23.95;43.76
69187;BME280;56301;56.864;60.554;2022-11-04T13:27:39;97590.34;;;23.94;43.61
69187;BME280;56301;56.864;60.554;2022-11-04T13:32:37;97573.31;;;23.94;44.02
69187;BME280;56301;56.864;60.554;2022-11-04T13:38:02;97586.19;;;23.92;43.76
69187;BME280;56301;56.864;60.554;2022-11-04T13:40:41;97579.75;;;23.93;43.52
69187;BME280;56301;56.864;60.554;2022-11-04T13:43:10;97589.72;;;23.92;44.04
69187;BME280;56301;56.864;60.554;2022-11-04T13:45:43;97590.75;;;23.91;43.39
69187;BME280;56301;56.864;60.554;2022-11-04T13:48:06;97591.59;;;23.92;43.53
69187;BME280;56301;56.864;60.554;2022-11-04T13:52:54;97587.84;;;23.93;43.53
69187;BME280;56301;56.864;60.554;2022-11-04T13:55:17;97587.00;;;23.92;43.47
69187;BME280;56301;56.864;60.554;2022-11-04T13:57:53;97592.41;;;23.92;44.09
69187;BME280;56301;56.864;60.554;2022-11-04T14:00:21;97587.00;;;23.92;43.52
69187;BME280;56301;56.864;60.554;2022-11-04T14:02:48;97585.13;;;23.93;43.80
69187;BME280;56301;56.864;60.554;2022-11-04T14:18:31;97592.63;;;23.91;43.67
69187;BME280;56301;56.864;60.554;2022-11-04T14:21:27;97600.75;;;23.91;43.51
69187;BME280;56301;56.864;60.554;2022-11-04T14:23:44;97603.22;;;23.92;43.86
69187;BME280;56301;56.864;60.554;2022-11-04T14:26:11;97596.16;;;23.91;43.42
69187;BME280;56301;56.864;60.554;2022-11-04T14:28:34;97600.75;;;23.91;43.63
69187;BME280;56301;56.864;60.554;2022-11-04T14:31:04;97600.75;;;23.91;43.63
69187;BME280;56301;56.864;60.554;2022-11-04T14:35:52;97593.69;;;23.90;43.73
69187;BME280;56301;56.864;60.554;2022-11-04T14:38:33;97596.38;;;23.90;43.58
69187;BME280;56301;56.864;60.554;2022-11-04T14:43:37;97592.00;;;23.89;43.37
69187;BME280;56301;56.864;60.554;2022-11-04T14:46:01;97594.69;;;23.89;43.16
69187;BME280;56301;56.864;60.554;2022-11-04T14:48:24;97599.09;;;23.90;43.46